sensor_id;sensor_type;location;lat;lon;timestamp;P1;durP1;ratioP1;P2;durP2;ratioP2
36593;SDS011;22603;47.900;8.146;2023-08-30T00:01:17;28.40;;;6.07;;
36593;SDS011;22603;47.900;8.146;2023-08-30T00:04:04;16.30;;;5.03;;
36593;SDS011;22603;47.900;8.146;2023-08-30T00:06:52;13.67;;;5.23;;
36593;SDS011;22603;47.900;8.146;2023-08-30T00:09:39;17.07;;;5.17;;
36593;SDS011;22603;47.900;8.146;2023-08-30T00:12:25;17.97;;;5.47;;
36593;SDS011;22603;47.900;8.146;2023-08-30T00:15:12;9.80;;;4.50;;
36593;SDS011;22603;47.900;8.146;2023-08-30T00:18:00;13.03;;;5.27;;
36593;SDS011;22603;47.900;8.146;2023-08-30T00:20:47;11.77;;;4.67;;
36593;SDS011;22603;47.900;8.146;2023-08-30T00:23:35;8.37;;;3.70;;
36593;SDS011;22603;47.900;8.146;2023-08-30T00:26:22;7.00;;;3.00;;
36593;SDS011;22603;47.900;8.146;2023-08-30T00:29:08;6.83;;;3.13;;
36593;SDS011;22603;47.900;8.146;2023-08-30T00:31:55;9.43;;;3.63;;
36593;SDS011;22603;47.900;8.146;2023-08-30T00:34:42;6.20;;;2.70;;
36593;SDS011;22603;47.900;8.146;2023-08-30T00:37:29;8.07;;;3.27;;
36593;SDS011;22603;47.900;8.146;2023-08-30T00:40:17;9.00;;;4.17;;
36593;SDS011;22603;47.900;8.146;2023-08-30T00:43:04;8.90;;;3.20;;
36593;SDS011;22603;47.900;8.146;2023-08-30T00:45:52;8.53;;;3.47;;
36593;SDS011;22603;47.900;8.146;2023-08-30T00:48:39;8.30;;;3.47;;
36593;SDS011;22603;47.900;8.146;2023-08-30T00:51:26;8.60;;;3.67;;
36593;SDS011;22603;47.900;8.146;2023-08-30T00:54:13;8.00;;;3.77;;
36593;SDS011;22603;47.900;8.146;2023-08-30T00:57:02;8.87;;;3.60;;
36593;SDS011;22603;47.900;8.146;2023-08-30T00:59:50;10.43;;;4.30;;
36593;SDS011;22603;47.900;8.146;2023-08-30T01:02:39;9.23;;;3.87;;
36593;SDS011;22603;47.900;8.146;2023-08-30T01:05:27;10.40;;;4.17;;
36593;SDS011;22603;47.900;8.146;2023-08-30T01:08:14;9.80;;;4.37;;
36593;SDS011;22603;47.900;8.146;2023-08-30T01:11:03;14.77;;;4.80;;
36593;SDS011;22603;47.900;8.146;2023-08-30T01:14:00;12.63;;;4.53;;
36593;SDS011;22603;47.900;8.146;2023-08-30T01:16:50;9.67;;;3.30;;
36593;SDS011;22603;47.900;8.146;2023-08-30T01:19:41;5.47;;;2.30;;
36593;SDS011;22603;47.900;8.146;2023-08-30T01:22:37;5.43;;;2.43;;
36593;SDS011;22603;47.900;8.146;2023-08-30T01:25:31;6.50;;;2.50;;
36593;SDS011;22603;47.900;8.146;2023-08-30T01:28:31;8.13;;;3.20;;
36593;SDS011;22603;47.900;8.146;2023-08-30T01:31:21;7.67;;;3.23;;
36593;SDS011;22603;47.900;8.146;2023-08-30T01:34:10;24.57;;;4.73;;
36593;SDS011;22603;47.900;8.146;2023-08-30T01:36:58;12.97;;;4.57;;
36593;SDS011;22603;47.900;8.146;2023-08-30T01:39:46;16.10;;;3.70;;
36593;SDS011;22603;47.900;8.146;2023-08-30T01:42:33;17.40;;;4.03;;
36593;SDS011;22603;47.900;8.146;2023-08-30T01:45:23;8.50;;;3.53;;
36593;SDS011;22603;47.900;8.146;2023-08-30T01:48:13;42.23;;;5.73;;
36593;SDS011;22603;47.900;8.146;2023-08-30T01:51:02;48.30;;;5.47;;
36593;SDS011;22603;47.900;8.146;2023-08-30T01:53:49;17.63;;;4.43;;
36593;SDS011;22603;47.900;8.146;2023-08-30T01:56:38;20.67;;;4.80;;
36593;SDS011;22603;47.900;8.146;2023-08-30T01:59:24;44.33;;;5.70;;
36593;SDS011;22603;47.900;8.146;2023-08-30T02:02:13;60.50;;;6.80;;
36593;SDS011;22603;47.900;8.146;2023-08-30T02:05:00;17.87;;;4.70;;
36593;SDS011;22603;47.900;8.146;2023-08-30T02:07:50;24.10;;;4.60;;
36593;SDS011;22603;47.900;8.146;2023-08-30T02:10:47;13.80;;;4.13;;
36593;SDS011;22603;47.900;8.146;2023-08-30T02:13:38;13.57;;;4.07;;
36593;SDS011;22603;47.900;8.146;2023-08-30T02:16:27;9.03;;;3.83;;
36593;SDS011;22603;47.900;8.146;2023-08-30T02:19:17;9.60;;;4.33;;
36593;SDS011;22603;47.900;8.146;2023-08-30T02:22:06;12.77;;;3.90;;
36593;SDS011;22603;47.900;8.146;2023-08-30T02:24:52;18.03;;;4.47;;
36593;SDS011;22603;47.900;8.146;2023-08-30T02:27:39;17.90;;;4.70;;
36593;SDS011;22603;47.900;8.146;2023-08-30T02:30:26;24.80;;;3.97;;
36593;SDS011;22603;47.900;8.146;2023-08-30T02:33:13;19.03;;;4.30;;
36593;SDS011;22603;47.900;8.146;2023-08-30T02:36:01;14.50;;;4.20;;
36593;SDS011;22603;47.900;8.146;2023-08-30T02:38:49;11.90;;;3.77;;
36593;SDS011;22603;47.900;8.146;2023-08-30T02:41:36;11.40;;;3.10;;
36593;SDS011;22603;47.900;8.146;2023-08-30T02:44:24;9.77;;;4.13;;
36593;SDS011;22603;47.900;8.146;2023-08-30T02:47:11;7.10;;;2.97;;
36593;SDS011;22603;47.900;8.146;2023-08-30T02:49:57;7.73;;;3.20;;
36593;SDS011;22603;47.900;8.146;2023-08-30T02:52:46;7.60;;;3.23;;
36593;SDS011;22603;47.900;8.146;2023-08-30T02:55:32;14.40;;;3.43;;
36593;SDS011;22603;47.900;8.146;2023-08-30T02:58:19;10.23;;;2.90;;
36593;SDS011;22603;47.900;8.146;2023-08-30T03:01:06;8.43;;;3.30;;
36593;SDS011;22603;47.900;8.146;2023-08-30T03:03:52;7.63;;;3.20;;
36593;SDS011;22603;47.900;8.146;2023-08-30T03:06:39;5.43;;;2.47;;
36593;SDS011;22603;47.900;8.146;2023-08-30T03:09:27;8.27;;;2.90;;
36593;SDS011;22603;47.900;8.146;2023-08-30T03:12:14;6.50;;;3.20;;
36593;SDS011;22603;47.900;8.146;2023-08-30T03:15:02;7.53;;;3.10;;
36593;SDS011;22603;47.900;8.146;2023-08-30T03:17:49;7.40;;;2.60;;
36593;SDS011;22603;47.900;8.146;2023-08-30T03:20:36;6.43;;;2.83;;
36593;SDS011;22603;47.900;8.146;2023-08-30T03:23:23;5.43;;;2.43;;
36593;SDS011;22603;47.900;8.146;2023-08-30T03:26:11;7.33;;;2.90;;
36593;SDS011;22603;47.900;8.146;2023-08-30T03:28:58;4.73;;;2.33;;
36593;SDS011;22603;47.900;8.146;2023-08-30T03:31:45;6.33;;;2.70;;
36593;SDS011;22603;47.900;8.146;2023-08-30T03:34:32;5.20;;;2.20;;
36593;SDS011;22603;47.900;8.146;2023-08-30T03:37:19;7.87;;;2.60;;
36593;SDS011;22603;47.900;8.146;2023-08-30T03:40:06;7.87;;;3.17;;
36593;SDS011;22603;47.900;8.146;2023-08-30T03:42:56;10.43;;;2.97;;
36593;SDS011;22603;47.900;8.146;2023-08-30T03:45:43;6.63;;;2.90;;
36593;SDS011;22603;47.900;8.146;2023-08-30T03:48:30;9.67;;;2.83;;
36593;SDS011;22603;47.900;8.146;2023-08-30T03:51:19;8.83;;;2.67;;
36593;SDS011;22603;47.900;8.146;2023-08-30T03:54:06;6.47;;;2.53;;
36593;SDS011;22603;47.900;8.146;2023-08-30T03:56:58;7.40;;;3.07;;
36593;SDS011;22603;47.900;8.146;2023-08-30T03:59:46;5.03;;;2.33;;
36593;SDS011;22603;47.900;8.146;2023-08-30T04:02:32;5.40;;;2.80;;
36593;SDS011;22603;47.900;8.146;2023-08-30T04:05:19;7.10;;;2.80;;
36593;SDS011;22603;47.900;8.146;2023-08-30T04:08:06;5.33;;;2.63;;
36593;SDS011;22603;47.900;8.146;2023-08-30T04:10:54;6.80;;;2.70;;
36593;SDS011;22603;47.900;8.146;2023-08-30T04:13:41;5.70;;;2.40;;
36593;SDS011;22603;47.900;8.146;2023-08-30T04:16:29;7.40;;;3.00;;
36593;SDS011;22603;47.900;8.146;2023-08-30T04:19:15;7.27;;;2.93;;
36593;SDS011;22603;47.900;8.146;2023-08-30T04:22:02;9.80;;;3.10;;
36593;SDS011;22603;47.900;8.146;2023-08-30T04:24:50;6.83;;;2.77;;
36593;SDS011;22603;47.900;8.146;2023-08-30T04:27:37;6.80;;;3.07;;
36593;SDS011;22603;47.900;8.146;2023-08-30T04:30:24;5.30;;;2.30;;
36593;SDS011;22603;47.900;8.146;2023-08-30T04:33:12;6.13;;;2.33;;
36593;SDS011;22603;47.900;8.146;2023-08-30T04:35:59;6.63;;;2.60;;
36593;SDS011;22603;47.900;8.146;2023-08-30T04:38:49;5.83;;;2.40;;
36593;SDS011;22603;47.900;8.146;2023-08-30T04:41:47;6.77;;;2.77;;
36593;SDS011;22603;47.900;8.146;2023-08-30T04:44:34;5.63;;;2.50;;
36593;SDS011;22603;47.900;8.146;2023-08-30T04:47:23;6.17;;;2.60;;
36593;SDS011;22603;47.900;8.146;2023-08-30T04:50:11;5.90;;;2.50;;
36593;SDS011;22603;47.900;8.146;2023-08-30T04:52:59;4.83;;;2.00;;
36593;SDS011;22603;47.900;8.146;2023-08-30T04:55:46;5.50;;;2.37;;
36593;SDS011;22603;47.900;8.146;2023-08-30T04:58:32;5.73;;;2.50;;
36593;SDS011;22603;47.900;8.146;2023-08-30T05:01:19;5.17;;;2.67;;
36593;SDS011;22603;47.900;8.146;2023-08-30T05:04:06;4.83;;;2.17;;
36593;SDS011;22603;47.900;8.146;2023-08-30T05:06:54;5.83;;;2.53;;
36593;SDS011;22603;47.900;8.146;2023-08-30T05:09:41;6.07;;;2.47;;
36593;SDS011;22603;47.900;8.146;2023-08-30T05:12:28;5.07;;;2.27;;
36593;SDS011;22603;47.900;8.146;2023-08-30T05:15:14;5.83;;;2.40;;
36593;SDS011;22603;47.900;8.146;2023-08-30T05:18:02;5.97;;;2.47;;
36593;SDS011;22603;47.900;8.146;2023-08-30T05:20:50;5.47;;;2.30;;
36593;SDS011;22603;47.900;8.146;2023-08-30T05:23:38;7.83;;;2.83;;
36593;SDS011;22603;47.900;8.146;2023-08-30T05:26:28;6.63;;;2.63;;
36593;SDS011;22603;47.900;8.146;2023-08-30T05:29:15;5.67;;;2.40;;
36593;SDS011;22603;47.900;8.146;2023-08-30T05:32:02;7.27;;;2.83;;
36593;SDS011;22603;47.900;8.146;2023-08-30T05:34:49;6.67;;;2.90;;
36593;SDS011;22603;47.900;8.146;2023-08-30T05:37:36;7.50;;;2.60;;
36593;SDS011;22603;47.900;8.146;2023-08-30T05:40:25;5.33;;;2.53;;
36593;SDS011;22603;47.900;8.146;2023-08-30T05:43:12;6.53;;;3.23;;
36593;SDS011;22603;47.900;8.146;2023-08-30T05:46:00;6.17;;;2.80;;
36593;SDS011;22603;47.900;8.146;2023-08-30T05:48:48;7.67;;;3.40;;
36593;SDS011;22603;47.900;8.146;2023-08-30T05:51:34;8.37;;;3.90;;
36593;SDS011;22603;47.900;8.146;2023-08-30T05:54:21;6.63;;;3.23;;
36593;SDS011;22603;47.900;8.146;2023-08-30T05:57:09;8.50;;;3.27;;
36593;SDS011;22603;47.900;8.146;2023-08-30T05:59:55;7.00;;;3.07;;
36593;SDS011;22603;47.900;8.146;2023-08-30T06:02:42;5.77;;;2.53;;
36593;SDS011;22603;47.900;8.146;2023-08-30T06:05:29;6.67;;;2.90;;
36593;SDS011;22603;47.900;8.146;2023-08-30T06:08:16;8.87;;;2.97;;
36593;SDS011;22603;47.900;8.146;2023-08-30T06:11:04;7.20;;;2.87;;
36593;SDS011;22603;47.900;8.146;2023-08-30T06:13:52;5.17;;;2.40;;
36593;SDS011;22603;47.900;8.146;2023-08-30T06:16:39;6.27;;;2.50;;
36593;SDS011;22603;47.900;8.146;2023-08-30T06:19:29;8.10;;;3.30;;
36593;SDS011;22603;47.900;8.146;2023-08-30T06:22:16;7.63;;;3.07;;
36593;SDS011;22603;47.900;8.146;2023-08-30T06:25:03;6.37;;;2.70;;
36593;SDS011;22603;47.900;8.146;2023-08-30T06:27:55;6.77;;;2.90;;
36593;SDS011;22603;47.900;8.146;2023-08-30T06:30:45;5.77;;;2.70;;
36593;SDS011;22603;47.900;8.146;2023-08-30T06:33:32;6.50;;;2.63;;
36593;SDS011;22603;47.900;8.146;2023-08-30T06:36:18;6.43;;;2.77;;
36593;SDS011;22603;47.900;8.146;2023-08-30T06:39:08;6.37;;;2.90;;
36593;SDS011;22603;47.900;8.146;2023-08-30T06:41:54;6.00;;;2.73;;
36593;SDS011;22603;47.900;8.146;2023-08-30T06:44:42;9.37;;;2.73;;
36593;SDS011;22603;47.900;8.146;2023-08-30T06:47:31;5.40;;;2.50;;
36593;SDS011;22603;47.900;8.146;2023-08-30T06:50:18;6.47;;;2.73;;
36593;SDS011;22603;47.900;8.146;2023-08-30T06:53:05;5.25;;;2.30;;
36593;SDS011;22603;47.900;8.146;2023-08-30T06:55:56;4.68;;;2.15;;
36593;SDS011;22603;47.900;8.146;2023-08-30T06:58:43;6.32;;;2.55;;
36593;SDS011;22603;47.900;8.146;2023-08-30T07:01:30;3.92;;;2.10;;
36593;SDS011;22603;47.900;8.146;2023-08-30T07:04:21;6.78;;;2.00;;
36593;SDS011;22603;47.900;8.146;2023-08-30T07:07:08;3.88;;;1.90;;
36593;SDS011;22603;47.900;8.146;2023-08-30T07:09:55;4.90;;;2.22;;
36593;SDS011;22603;47.900;8.146;2023-08-30T07:12:41;7.45;;;2.20;;
36593;SDS011;22603;47.900;8.146;2023-08-30T07:15:30;3.20;;;1.80;;
36593;SDS011;22603;47.900;8.146;2023-08-30T07:18:16;4.65;;;2.03;;
36593;SDS011;22603;47.900;8.146;2023-08-30T07:21:04;3.92;;;2.05;;
36593;SDS011;22603;47.900;8.146;2023-08-30T07:23:51;6.07;;;2.47;;
36593;SDS011;22603;47.900;8.146;2023-08-30T07:26:40;5.78;;;2.20;;
36593;SDS011;22603;47.900;8.146;2023-08-30T07:29:27;5.57;;;2.00;;
36593;SDS011;22603;47.900;8.146;2023-08-30T07:32:14;4.30;;;2.03;;
36593;SDS011;22603;47.900;8.146;2023-08-30T07:35:01;4.90;;;2.10;;
36593;SDS011;22603;47.900;8.146;2023-08-30T07:37:49;4.80;;;2.33;;
36593;SDS011;22603;47.900;8.146;2023-08-30T07:40:36;6.75;;;2.03;;
36593;SDS011;22603;47.900;8.146;2023-08-30T07:43:22;4.88;;;2.25;;
36593;SDS011;22603;47.900;8.146;2023-08-30T07:46:09;5.03;;;2.17;;
36593;SDS011;22603;47.900;8.146;2023-08-30T07:48:56;4.57;;;2.20;;
36593;SDS011;22603;47.900;8.146;2023-08-30T07:51:43;5.28;;;2.33;;
36593;SDS011;22603;47.900;8.146;2023-08-30T07:54:32;6.75;;;2.10;;
36593;SDS011;22603;47.900;8.146;2023-08-30T07:57:18;5.00;;;2.30;;
36593;SDS011;22603;47.900;8.146;2023-08-30T08:00:05;3.90;;;1.90;;
36593;SDS011;22603;47.900;8.146;2023-08-30T08:02:53;4.15;;;1.80;;
36593;SDS011;22603;47.900;8.146;2023-08-30T08:05:40;3.17;;;1.58;;
36593;SDS011;22603;47.900;8.146;2023-08-30T08:08:27;3.83;;;1.73;;
36593;SDS011;22603;47.900;8.146;2023-08-30T08:11:15;4.65;;;1.80;;
36593;SDS011;22603;47.900;8.146;2023-08-30T08:14:02;3.55;;;1.65;;
36593;SDS011;22603;47.900;8.146;2023-08-30T08:16:48;4.95;;;1.85;;
36593;SDS011;22603;47.900;8.146;2023-08-30T08:19:35;3.13;;;1.52;;
36593;SDS011;22603;47.900;8.146;2023-08-30T08:22:24;3.75;;;1.80;;
36593;SDS011;22603;47.900;8.146;2023-08-30T08:25:11;4.57;;;1.98;;
36593;SDS011;22603;47.900;8.146;2023-08-30T08:28:00;4.60;;;1.90;;
36593;SDS011;22603;47.900;8.146;2023-08-30T08:30:48;4.75;;;2.08;;
36593;SDS011;22603;47.900;8.146;2023-08-30T08:33:36;6.47;;;1.92;;
36593;SDS011;22603;47.900;8.146;2023-08-30T08:36:22;3.20;;;1.73;;
36593;SDS011;22603;47.900;8.146;2023-08-30T08:39:10;3.38;;;1.92;;
36593;SDS011;22603;47.900;8.146;2023-08-30T08:41:59;3.30;;;1.67;;
36593;SDS011;22603;47.900;8.146;2023-08-30T08:44:49;4.53;;;1.92;;
36593;SDS011;22603;47.900;8.146;2023-08-30T08:47:37;3.38;;;1.83;;
36593;SDS011;22603;47.900;8.146;2023-08-30T08:50:25;2.67;;;1.70;;
36593;SDS011;22603;47.900;8.146;2023-08-30T08:53:15;4.60;;;1.85;;
36593;SDS011;22603;47.900;8.146;2023-08-30T08:56:01;4.43;;;1.92;;
36593;SDS011;22603;47.900;8.146;2023-08-30T08:58:49;3.88;;;1.80;;
36593;SDS011;22603;47.900;8.146;2023-08-30T09:01:38;3.53;;;1.52;;
36593;SDS011;22603;47.900;8.146;2023-08-30T09:04:25;4.20;;;1.80;;
36593;SDS011;22603;47.900;8.146;2023-08-30T09:07:12;2.65;;;1.40;;
36593;SDS011;22603;47.900;8.146;2023-08-30T09:09:59;2.85;;;1.52;;
36593;SDS011;22603;47.900;8.146;2023-08-30T09:12:47;3.55;;;1.70;;
36593;SDS011;22603;47.900;8.146;2023-08-30T09:15:34;3.53;;;1.73;;
36593;SDS011;22603;47.900;8.146;2023-08-30T09:18:23;2.63;;;1.33;;
36593;SDS011;22603;47.900;8.146;2023-08-30T09:21:12;2.50;;;1.40;;
36593;SDS011;22603;47.900;8.146;2023-08-30T09:23:59;3.03;;;1.40;;
36593;SDS011;22603;47.900;8.146;2023-08-30T09:26:49;3.17;;;1.55;;
36593;SDS011;22603;47.900;8.146;2023-08-30T09:29:36;5.20;;;1.55;;
36593;SDS011;22603;47.900;8.146;2023-08-30T09:32:23;2.83;;;1.42;;
36593;SDS011;22603;47.900;8.146;2023-08-30T09:35:12;3.00;;;1.70;;
36593;SDS011;22603;47.900;8.146;2023-08-30T09:37:59;5.05;;;1.60;;
36593;SDS011;22603;47.900;8.146;2023-08-30T09:40:45;2.83;;;1.42;;
36593;SDS011;22603;47.900;8.146;2023-08-30T09:43:33;3.08;;;1.70;;
36593;SDS011;22603;47.900;8.146;2023-08-30T09:46:19;3.50;;;1.75;;
36593;SDS011;22603;47.900;8.146;2023-08-30T09:49:28;4.03;;;1.40;;
36593;SDS011;22603;47.900;8.146;2023-08-30T09:52:25;2.70;;;1.38;;
36593;SDS011;22603;47.900;8.146;2023-08-30T09:55:15;3.28;;;1.33;;
36593;SDS011;22603;47.900;8.146;2023-08-30T09:58:03;2.50;;;1.30;;
36593;SDS011;22603;47.900;8.146;2023-08-30T10:00:50;4.28;;;1.60;;
36593;SDS011;22603;47.900;8.146;2023-08-30T10:03:37;3.60;;;1.58;;
36593;SDS011;22603;47.900;8.146;2023-08-30T10:06:25;4.40;;;1.80;;
36593;SDS011;22603;47.900;8.146;2023-08-30T10:09:15;3.35;;;1.52;;
36593;SDS011;22603;47.900;8.146;2023-08-30T10:12:04;3.13;;;1.40;;
36593;SDS011;22603;47.900;8.146;2023-08-30T10:14:52;2.60;;;1.48;;
36593;SDS011;22603;47.900;8.146;2023-08-30T10:17:44;6.15;;;1.80;;
36593;SDS011;22603;47.900;8.146;2023-08-30T10:20:31;5.65;;;2.20;;
36593;SDS011;22603;47.900;8.146;2023-08-30T10:23:21;6.03;;;2.60;;
36593;SDS011;22603;47.900;8.146;2023-08-30T10:26:10;5.75;;;2.45;;
36593;SDS011;22603;47.900;8.146;2023-08-30T10:28:57;4.57;;;2.25;;
36593;SDS011;22603;47.900;8.146;2023-08-30T10:31:45;5.55;;;2.33;;
36593;SDS011;22603;47.900;8.146;2023-08-30T10:34:32;4.00;;;2.10;;
36593;SDS011;22603;47.900;8.146;2023-08-30T10:37:24;5.32;;;2.33;;
36593;SDS011;22603;47.900;8.146;2023-08-30T10:40:12;8.13;;;2.50;;
36593;SDS011;22603;47.900;8.146;2023-08-30T10:43:01;5.88;;;2.58;;
36593;SDS011;22603;47.900;8.146;2023-08-30T10:45:57;7.40;;;2.22;;
36593;SDS011;22603;47.900;8.146;2023-08-30T10:48:46;8.00;;;2.95;;
36593;SDS011;22603;47.900;8.146;2023-08-30T10:51:35;7.05;;;2.60;;
36593;SDS011;22603;47.900;8.146;2023-08-30T10:54:24;5.93;;;2.67;;
36593;SDS011;22603;47.900;8.146;2023-08-30T10:57:14;5.70;;;2.45;;
36593;SDS011;22603;47.900;8.146;2023-08-30T11:00:06;6.18;;;2.90;;
36593;SDS011;22603;47.900;8.146;2023-08-30T11:02:55;5.78;;;2.63;;
36593;SDS011;22603;47.900;8.146;2023-08-30T11:05:42;5.93;;;2.70;;
36593;SDS011;22603;47.900;8.146;2023-08-30T11:08:29;9.93;;;3.38;;
36593;SDS011;22603;47.900;8.146;2023-08-30T11:11:16;6.25;;;3.00;;
36593;SDS011;22603;47.900;8.146;2023-08-30T11:14:06;7.00;;;3.33;;
36593;SDS011;22603;47.900;8.146;2023-08-30T11:16:54;6.18;;;2.83;;
36593;SDS011;22603;47.900;8.146;2023-08-30T11:19:41;7.13;;;3.40;;
36593;SDS011;22603;47.900;8.146;2023-08-30T11:22:28;8.23;;;3.53;;
36593;SDS011;22603;47.900;8.146;2023-08-30T11:25:15;8.70;;;3.60;;
36593;SDS011;22603;47.900;8.146;2023-08-30T11:28:04;6.85;;;3.05;;
36593;SDS011;22603;47.900;8.146;2023-08-30T11:30:52;8.02;;;3.50;;
36593;SDS011;22603;47.900;8.146;2023-08-30T11:33:41;11.18;;;3.97;;
36593;SDS011;22603;47.900;8.146;2023-08-30T11:36:36;8.40;;;3.72;;
36593;SDS011;22603;47.900;8.146;2023-08-30T11:39:26;9.27;;;3.78;;
36593;SDS011;22603;47.900;8.146;2023-08-30T11:42:15;10.98;;;3.40;;
36593;SDS011;22603;47.900;8.146;2023-08-30T11:45:03;6.75;;;3.08;;
36593;SDS011;22603;47.900;8.146;2023-08-30T11:47:50;6.75;;;3.00;;
36593;SDS011;22603;47.900;8.146;2023-08-30T11:50:39;6.57;;;3.00;;
36593;SDS011;22603;47.900;8.146;2023-08-30T11:53:33;6.00;;;2.85;;
36593;SDS011;22603;47.900;8.146;2023-08-30T11:56:20;5.53;;;2.60;;
36593;SDS011;22603;47.900;8.146;2023-08-30T11:59:17;6.32;;;2.28;;
36593;SDS011;22603;47.900;8.146;2023-08-30T12:02:05;4.32;;;1.83;;
36593;SDS011;22603;47.900;8.146;2023-08-30T12:04:53;3.70;;;1.83;;
36593;SDS011;22603;47.900;8.146;2023-08-30T12:07:41;4.88;;;1.85;;
36593;SDS011;22603;47.900;8.146;2023-08-30T12:10:28;3.22;;;1.60;;
36593;SDS011;22603;47.900;8.146;2023-08-30T12:13:21;3.30;;;1.60;;
36593;SDS011;22603;47.900;8.146;2023-08-30T12:16:08;4.68;;;1.90;;
36593;SDS011;22603;47.900;8.146;2023-08-30T12:19:08;3.33;;;1.67;;
36593;SDS011;22603;47.900;8.146;2023-08-30T12:21:56;4.18;;;1.70;;
36593;SDS011;22603;47.900;8.146;2023-08-30T12:24:50;4.05;;;1.83;;
36593;SDS011;22603;47.900;8.146;2023-08-30T12:27:39;3.63;;;1.73;;
36593;SDS011;22603;47.900;8.146;2023-08-30T12:30:25;3.53;;;1.63;;
36593;SDS011;22603;47.900;8.146;2023-08-30T12:33:12;3.63;;;1.40;;
36593;SDS011;22603;47.900;8.146;2023-08-30T12:36:03;4.47;;;1.80;;
36593;SDS011;22603;47.900;8.146;2023-08-30T12:38:50;3.95;;;1.80;;
36593;SDS011;22603;47.900;8.146;2023-08-30T12:41:38;5.50;;;1.98;;
36593;SDS011;22603;47.900;8.146;2023-08-30T12:44:27;5.22;;;2.00;;
36593;SDS011;22603;47.900;8.146;2023-08-30T12:47:14;4.80;;;2.10;;
36593;SDS011;22603;47.900;8.146;2023-08-30T12:50:01;3.55;;;1.90;;
36593;SDS011;22603;47.900;8.146;2023-08-30T12:52:47;5.22;;;2.13;;
36593;SDS011;22603;47.900;8.146;2023-08-30T12:55:34;4.57;;;2.20;;
36593;SDS011;22603;47.900;8.146;2023-08-30T12:58:25;4.72;;;1.88;;
36593;SDS011;22603;47.900;8.146;2023-08-30T13:01:12;5.47;;;1.98;;
36593;SDS011;22603;47.900;8.146;2023-08-30T13:03:59;5.80;;;2.50;;
36593;SDS011;22603;47.900;8.146;2023-08-30T13:06:46;4.97;;;2.30;;
36593;SDS011;22603;47.900;8.146;2023-08-30T13:09:33;4.80;;;2.10;;
36593;SDS011;22603;47.900;8.146;2023-08-30T13:12:20;5.57;;;2.33;;
36593;SDS011;22603;47.900;8.146;2023-08-30T13:15:09;3.75;;;1.90;;
36593;SDS011;22603;47.900;8.146;2023-08-30T13:17:56;6.35;;;2.17;;
36593;SDS011;22603;47.900;8.146;2023-08-30T13:20:43;5.38;;;2.13;;
36593;SDS011;22603;47.900;8.146;2023-08-30T13:23:31;4.47;;;2.08;;
36593;SDS011;22603;47.900;8.146;2023-08-30T13:26:17;4.47;;;2.10;;
36593;SDS011;22603;47.900;8.146;2023-08-30T13:29:04;4.20;;;1.92;;
36593;SDS011;22603;47.900;8.146;2023-08-30T13:31:52;4.50;;;2.22;;
36593;SDS011;22603;47.900;8.146;2023-08-30T13:34:39;4.40;;;2.10;;
36593;SDS011;22603;47.900;8.146;2023-08-30T13:37:28;6.22;;;2.17;;
36593;SDS011;22603;47.900;8.146;2023-08-30T13:40:16;4.15;;;2.17;;
36593;SDS011;22603;47.900;8.146;2023-08-30T13:43:03;7.57;;;2.40;;
36593;SDS011;22603;47.900;8.146;2023-08-30T13:45:56;3.47;;;1.90;;
36593;SDS011;22603;47.900;8.146;2023-08-30T13:48:46;4.03;;;1.90;;
36593;SDS011;22603;47.900;8.146;2023-08-30T13:51:34;3.83;;;2.00;;
36593;SDS011;22603;47.900;8.146;2023-08-30T13:54:21;3.72;;;1.70;;
36593;SDS011;22603;47.900;8.146;2023-08-30T13:57:08;4.03;;;1.90;;
36593;SDS011;22603;47.900;8.146;2023-08-30T13:59:55;3.83;;;1.50;;
36593;SDS011;22603;47.900;8.146;2023-08-30T14:02:42;5.18;;;1.92;;
36593;SDS011;22603;47.900;8.146;2023-08-30T14:05:30;3.15;;;1.80;;
36593;SDS011;22603;47.900;8.146;2023-08-30T14:08:17;3.90;;;1.90;;
36593;SDS011;22603;47.900;8.146;2023-08-30T14:11:03;2.92;;;1.70;;
36593;SDS011;22603;47.900;8.146;2023-08-30T14:13:51;3.30;;;1.80;;
36593;SDS011;22603;47.900;8.146;2023-08-30T14:16:39;3.13;;;1.70;;
36593;SDS011;22603;47.900;8.146;2023-08-30T14:19:26;4.57;;;1.52;;
36593;SDS011;22603;47.900;8.146;2023-08-30T14:22:14;4.50;;;1.83;;
36593;SDS011;22603;47.900;8.146;2023-08-30T14:25:01;3.63;;;1.60;;
36593;SDS011;22603;47.900;8.146;2023-08-30T14:27:56;3.67;;;1.73;;
36593;SDS011;22603;47.900;8.146;2023-08-30T14:30:44;4.57;;;1.90;;
36593;SDS011;22603;47.900;8.146;2023-08-30T14:33:31;4.00;;;2.00;;
36593;SDS011;22603;47.900;8.146;2023-08-30T14:36:18;2.85;;;1.55;;
36593;SDS011;22603;47.900;8.146;2023-08-30T14:39:07;3.10;;;1.60;;
36593;SDS011;22603;47.900;8.146;2023-08-30T14:41:54;3.28;;;1.90;;
36593;SDS011;22603;47.900;8.146;2023-08-30T14:44:40;4.85;;;1.77;;
36593;SDS011;22603;47.900;8.146;2023-08-30T14:47:28;5.15;;;1.65;;
36593;SDS011;22603;47.900;8.146;2023-08-30T14:50:16;3.45;;;1.60;;
36593;SDS011;22603;47.900;8.146;2023-08-30T14:53:03;3.28;;;1.58;;
36593;SDS011;22603;47.900;8.146;2023-08-30T14:55:52;6.47;;;1.58;;
36593;SDS011;22603;47.900;8.146;2023-08-30T14:58:40;4.00;;;1.50;;
36593;SDS011;22603;47.900;8.146;2023-08-30T15:01:29;2.08;;;1.10;;
36593;SDS011;22603;47.900;8.146;2023-08-30T15:04:16;2.75;;;1.58;;
36593;SDS011;22603;47.900;8.146;2023-08-30T15:07:03;3.13;;;1.63;;
36593;SDS011;22603;47.900;8.146;2023-08-30T15:09:49;4.47;;;1.70;;
36593;SDS011;22603;47.900;8.146;2023-08-30T15:12:38;3.75;;;1.45;;
36593;SDS011;22603;47.900;8.146;2023-08-30T15:15:25;2.47;;;1.33;;
36593;SDS011;22603;47.900;8.146;2023-08-30T15:18:15;4.82;;;1.58;;
36593;SDS011;22603;47.900;8.146;2023-08-30T15:21:03;3.42;;;1.50;;
36593;SDS011;22603;47.900;8.146;2023-08-30T15:23:50;2.40;;;1.48;;
36593;SDS011;22603;47.900;8.146;2023-08-30T15:26:38;4.40;;;1.67;;
36593;SDS011;22603;47.900;8.146;2023-08-30T15:29:26;4.13;;;1.67;;
36593;SDS011;22603;47.900;8.146;2023-08-30T15:32:13;3.40;;;1.73;;
36593;SDS011;22603;47.900;8.146;2023-08-30T15:34:59;3.33;;;1.50;;
36593;SDS011;22603;47.900;8.146;2023-08-30T15:37:46;13.38;;;1.70;;
36593;SDS011;22603;47.900;8.146;2023-08-30T15:40:33;4.10;;;1.58;;
36593;SDS011;22603;47.900;8.146;2023-08-30T15:43:20;5.13;;;1.60;;
36593;SDS011;22603;47.900;8.146;2023-08-30T15:46:09;4.80;;;1.80;;
36593;SDS011;22603;47.900;8.146;2023-08-30T15:48:57;5.80;;;1.60;;
36593;SDS011;22603;47.900;8.146;2023-08-30T15:51:44;3.65;;;1.42;;
36593;SDS011;22603;47.900;8.146;2023-08-30T15:54:30;5.50;;;1.80;;
36593;SDS011;22603;47.900;8.146;2023-08-30T15:57:17;3.72;;;1.80;;
36593;SDS011;22603;47.900;8.146;2023-08-30T16:00:04;4.47;;;1.63;;
36593;SDS011;22603;47.900;8.146;2023-08-30T16:02:53;3.85;;;1.60;;
36593;SDS011;22603;47.900;8.146;2023-08-30T16:05:42;2.85;;;1.20;;
36593;SDS011;22603;47.900;8.146;2023-08-30T16:08:29;2.45;;;1.30;;
36593;SDS011;22603;47.900;8.146;2023-08-30T16:11:16;3.53;;;1.60;;
36593;SDS011;22603;47.900;8.146;2023-08-30T16:14:03;5.32;;;1.60;;
36593;SDS011;22603;47.900;8.146;2023-08-30T16:16:51;2.80;;;1.40;;
36593;SDS011;22603;47.900;8.146;2023-08-30T16:19:39;3.63;;;1.58;;
36593;SDS011;22603;47.900;8.146;2023-08-30T16:22:26;3.90;;;1.42;;
36593;SDS011;22603;47.900;8.146;2023-08-30T16:25:13;3.45;;;1.50;;
36593;SDS011;22603;47.900;8.146;2023-08-30T16:28:00;3.55;;;1.40;;
36593;SDS011;22603;47.900;8.146;2023-08-30T16:30:49;4.40;;;1.50;;
36593;SDS011;22603;47.900;8.146;2023-08-30T16:33:37;3.92;;;1.55;;
36593;SDS011;22603;47.900;8.146;2023-08-30T16:36:25;3.60;;;1.33;;
36593;SDS011;22603;47.900;8.146;2023-08-30T16:39:12;2.90;;;1.40;;
36593;SDS011;22603;47.900;8.146;2023-08-30T16:41:59;5.03;;;1.58;;
36593;SDS011;22603;47.900;8.146;2023-08-30T16:44:45;4.38;;;1.40;;
36593;SDS011;22603;47.900;8.146;2023-08-30T16:47:33;3.55;;;1.60;;
36593;SDS011;22603;47.900;8.146;2023-08-30T16:50:39;3.33;;;1.60;;